»·PEaware :: N10MT L52-67L

N10MT :: L52-67L

FLIGHT INFORMATION

Flight Status: Arrived
Operator: Privately registered:
United States
More flights under this callsign
Pilot: Matthew T. (14159)
Aircraft: CESSNA T210 TURBO CENTURION
(T210)
More flights by this aircraft type
Origin: L52 Oceano Co
United States
Destination: 67L Mesquite
United States
More flights between these airports :: More routes between these airports
Route:
File this flight plan on PilotEdge
Remarks:
Altitude:
(Current/Filed)
17,500ft
Speed:
(Current/Filed)
180kts
Departed: 02-Jan-19 03:14 PM
Arrived: 02-Jan-19 05:27 PM
Distance/Time
Traveled:
335nm/2:13
Distance/Time
To Go:
Arrived

Flight Plot

Page will automatically refresh every two minutes.


Map Options




Map Legend


Flown Route
Filed Route
Departure Airport
Arrival Airport
Navaid (VOR, NDB)
Fix

Horizontal Profiles

Position Reports

Time Latitude Longitude Heading Altitude Ground
Speed
02-Jan-19 15:04 35.102183 -120.622275 132 18ft 0kts
02-Jan-19 15:05 35.101968 -120.622098 186 18ft 0kts
02-Jan-19 15:06 35.100938 -120.622102 124 18ft 10kts
02-Jan-19 15:07 35.099390 -120.619424 75 18ft 0kts
02-Jan-19 15:08 35.099405 -120.619400 31 18ft 0kts
02-Jan-19 15:09 35.099405 -120.619400 31 18ft 0kts
02-Jan-19 15:10 35.099405 -120.619400 31 18ft 0kts
02-Jan-19 15:11 35.099420 -120.619392 23 18ft 0kts
02-Jan-19 15:12 35.099500 -120.619357 22 18ft 0kts
02-Jan-19 15:13 35.101617 -120.622433 302 18ft 73kts
02-Jan-19 15:14 35.110223 -120.650661 246 880ft 101kts
02-Jan-19 15:15 35.088500 -120.645283 117 1091ft 113kts
02-Jan-19 15:16 35.070278 -120.605842 118 1241ft 150kts
02-Jan-19 15:17 35.058368 -120.557112 84 1598ft 148kts
02-Jan-19 15:18 35.063567 -120.513164 70 2661ft 116kts
02-Jan-19 15:19 35.074783 -120.476820 62 3575ft 116kts
02-Jan-19 15:20 35.088020 -120.440304 61 4409ft 120kts
02-Jan-19 15:21 35.101811 -120.402641 61 5221ft 123kts
02-Jan-19 15:22 35.115643 -120.364233 61 6032ft 123kts
02-Jan-19 15:23 35.128999 -120.326396 61 6822ft 123kts
02-Jan-19 15:24 35.142271 -120.287790 62 7625ft 122kts
02-Jan-19 15:25 35.155127 -120.249448 62 8426ft 122kts
02-Jan-19 15:26 35.167754 -120.211008 62 9231ft 121kts
02-Jan-19 15:27 35.180153 -120.172728 62 10036ft 120kts
02-Jan-19 15:28 35.193764 -120.136121 46 10841ft 116kts
02-Jan-19 15:29 35.206499 -120.099103 67 11647ft 120kts
02-Jan-19 15:30 35.214898 -120.059195 69 12456ft 121kts
02-Jan-19 15:31 35.222944 -120.019126 68 13263ft 121kts
02-Jan-19 15:32 35.231172 -119.977874 69 13983ft 128kts
02-Jan-19 15:33 35.239619 -119.935015 69 14696ft 132kts
02-Jan-19 15:34 35.248274 -119.891004 69 15408ft 134kts
02-Jan-19 15:35 35.257069 -119.846230 69 16117ft 136kts
02-Jan-19 15:36 35.265982 -119.800831 69 16827ft 138kts
02-Jan-19 15:37 35.274957 -119.755082 69 17483ft 141kts
02-Jan-19 15:38 35.285293 -119.701989 71 17506ft 176kts
02-Jan-19 15:39 35.296909 -119.641474 71 17503ft 182kts
02-Jan-19 15:40 35.308269 -119.582694 71 17506ft 175kts
02-Jan-19 15:41 35.319416 -119.525253 71 17509ft 172kts
02-Jan-19 15:42 35.330480 -119.468118 71 17509ft 172kts
02-Jan-19 15:43 35.341494 -119.411123 71 17510ft 173kts
02-Jan-19 15:44 35.352699 -119.352831 71 17510ft 176kts
02-Jan-19 15:45 35.363471 -119.296679 71 17510ft 178kts
02-Jan-19 15:47 35.374724 -119.237838 71 17510ft 178kts
02-Jan-19 15:48 35.386028 -119.178604 71 17510ft 178kts
02-Jan-19 15:49 35.397228 -119.119758 71 17510ft 178kts
02-Jan-19 15:50 35.408538 -119.060558 71 17510ft 178kts
02-Jan-19 15:51 35.419794 -119.001557 71 17509ft 178kts
02-Jan-19 15:52 35.430924 -118.942574 70 17509ft 177kts
02-Jan-19 15:53 35.442066 -118.883413 70 17509ft 177kts
02-Jan-19 15:54 35.453098 -118.824558 70 17510ft 177kts
02-Jan-19 15:55 35.464163 -118.765424 70 17505ft 177kts
02-Jan-19 15:56 35.475125 -118.706691 70 17499ft 176kts
02-Jan-19 15:57 35.485993 -118.648303 70 17475ft 176kts
02-Jan-19 15:58 35.496877 -118.589590 70 17467ft 176kts
02-Jan-19 15:59 35.507663 -118.531271 70 17463ft 175kts
02-Jan-19 16:00 35.518426 -118.472891 70 17463ft 175kts
02-Jan-19 16:01 35.529177 -118.414435 70 17463ft 175kts
02-Jan-19 16:02 35.539847 -118.356264 70 17463ft 175kts
02-Jan-19 16:03 35.550240 -118.299411 70 17464ft 175kts
02-Jan-19 16:04 35.560892 -118.241135 71 17486ft 175kts
02-Jan-19 16:05 35.571561 -118.182334 71 17491ft 177kts
02-Jan-19 16:06 35.582265 -118.123238 71 17495ft 177kts
02-Jan-19 16:06 35.591193 -118.073832 71 17499ft 177kts
02-Jan-19 16:08 35.603691 -118.004467 71 17499ft 178kts
02-Jan-19 16:08 35.612664 -117.954610 71 17500ft 181kts
02-Jan-19 16:09 35.623552 -117.893781 71 17499ft 182kts
02-Jan-19 16:11 35.636251 -117.822636 71 17499ft 183kts
02-Jan-19 16:11 35.645342 -117.771534 71 17499ft 183kts
02-Jan-19 16:12 35.656215 -117.710293 71 17499ft 183kts
02-Jan-19 16:13 35.666901 -117.649912 71 17499ft 183kts
02-Jan-19 16:14 35.677705 -117.588642 71 17499ft 183kts
02-Jan-19 16:15 35.688443 -117.527580 71 17499ft 183kts
02-Jan-19 16:16 35.698805 -117.468474 71 17499ft 183kts
02-Jan-19 16:17 35.709545 -117.407018 71 17499ft 183kts
02-Jan-19 16:18 35.720208 -117.345795 72 17497ft 183kts
02-Jan-19 16:19 35.730779 -117.284939 72 17498ft 183kts
02-Jan-19 16:20 35.741389 -117.223656 72 17498ft 183kts
02-Jan-19 16:21 35.751980 -117.162258 72 17498ft 183kts
02-Jan-19 16:22 35.762543 -117.100846 72 17499ft 183kts
02-Jan-19 16:23 35.773042 -117.039616 72 17504ft 182kts
02-Jan-19 16:24 35.783458 -116.978660 72 17508ft 181kts
02-Jan-19 16:25 35.793825 -116.917800 72 17513ft 180kts
02-Jan-19 16:26 35.804051 -116.857513 72 17516ft 180kts
02-Jan-19 16:27 35.814263 -116.797216 72 17516ft 179kts
02-Jan-19 16:28 35.824476 -116.736710 72 17489ft 180kts
02-Jan-19 16:29 35.834595 -116.676481 72 17488ft 179kts
02-Jan-19 16:30 35.844692 -116.616314 72 17488ft 179kts
02-Jan-19 16:31 35.854735 -116.556148 72 17489ft 179kts
02-Jan-19 16:32 35.864766 -116.495923 72 17488ft 179kts
02-Jan-19 16:33 35.874765 -116.435699 72 17488ft 179kts
02-Jan-19 16:34 35.884717 -116.375550 72 17488ft 179kts
02-Jan-19 16:35 35.894530 -116.316058 73 17487ft 179kts
02-Jan-19 16:36 35.904438 -116.255761 73 17485ft 179kts
02-Jan-19 16:37 35.914321 -116.195448 73 17482ft 179kts
02-Jan-19 16:38 35.924170 -116.135152 73 17478ft 179kts
02-Jan-19 16:39 35.933581 -116.077297 73 17475ft 179kts
02-Jan-19 16:40 35.943369 -116.016948 73 17473ft 179kts
02-Jan-19 16:41 35.953128 -115.956640 73 17471ft 179kts
02-Jan-19 16:42 35.962855 -115.896271 73 17471ft 179kts
02-Jan-19 16:43 35.972535 -115.836009 73 17477ft 179kts
02-Jan-19 16:44 35.982143 -115.775967 73 17482ft 178kts
02-Jan-19 16:45 35.991736 -115.715856 73 17486ft 178kts
02-Jan-19 16:46 36.001275 -115.655856 73 17488ft 178kts
02-Jan-19 16:47 36.010778 -115.595891 73 17487ft 178kts
02-Jan-19 16:48 36.020101 -115.536820 73 17487ft 178kts
02-Jan-19 16:49 36.029538 -115.476888 73 17488ft 178kts
02-Jan-19 16:50 36.038942 -115.416895 73 17491ft 178kts
02-Jan-19 16:51 36.048324 -115.356990 73 17496ft 178kts
02-Jan-19 16:52 36.057502 -115.298044 73 17501ft 178kts
02-Jan-19 16:53 36.066820 -115.238068 73 17505ft 178kts
02-Jan-19 16:54 36.076037 -115.178432 73 17506ft 178kts
02-Jan-19 16:55 36.097672 -115.127195 45 17502ft 169kts
02-Jan-19 16:56 36.127912 -115.083684 44 17504ft 168kts
02-Jan-19 16:57 36.158442 -115.039814 44 17502ft 167kts
02-Jan-19 16:58 36.188622 -114.996416 44 17502ft 165kts
02-Jan-19 16:59 36.218445 -114.953470 44 17501ft 163kts
02-Jan-19 17:00 36.248007 -114.910765 44 17041ft 162kts
02-Jan-19 17:01 36.277312 -114.868427 44 16461ft 164kts
02-Jan-19 17:02 36.307133 -114.825303 44 15775ft 166kts
02-Jan-19 17:03 36.337155 -114.781865 45 15083ft 168kts
02-Jan-19 17:04 36.367810 -114.737433 45 14396ft 171kts
02-Jan-19 17:05 36.398484 -114.692875 45 13696ft 169kts
02-Jan-19 17:06 36.428831 -114.649013 45 12992ft 166kts
02-Jan-19 17:07 36.458907 -114.605353 45 12293ft 168kts
02-Jan-19 17:08 36.488816 -114.561752 45 11588ft 165kts
02-Jan-19 17:09 36.518284 -114.518759 46 10878ft 161kts
02-Jan-19 17:10 36.547056 -114.476683 46 10169ft 158kts
02-Jan-19 17:11 36.575287 -114.435402 46 9519ft 152kts
02-Jan-19 17:12 36.600545 -114.398428 45 9505ft 132kts
02-Jan-19 17:13 36.624924 -114.362789 46 9123ft 146kts
02-Jan-19 17:14 36.651815 -114.323310 46 8437ft 153kts
02-Jan-19 17:15 36.679791 -114.282148 46 7743ft 159kts
02-Jan-19 17:16 36.700182 -114.233164 67 7041ft 164kts
02-Jan-19 17:17 36.714212 -114.178822 67 6337ft 165kts
02-Jan-19 17:18 36.729921 -114.124840 50 5630ft 164kts
02-Jan-19 17:19 36.766325 -114.104990 353 5321ft 119kts
02-Jan-19 17:20 36.764314 -114.134484 188 4861ft 127kts
02-Jan-19 17:21 36.756364 -114.110435 30 4135ft 96kts
02-Jan-19 17:22 36.776215 -114.093894 26 3584ft 79kts
02-Jan-19 17:23 36.794673 -114.081972 25 2975ft 69kts
02-Jan-19 17:24 36.811143 -114.071429 27 2299ft 66kts
02-Jan-19 17:25 36.827250 -114.060055 27 1991ft 64kts
02-Jan-19 17:26 36.831870 -114.057348 298 1979ft 9kts
02-Jan-19 17:27 36.831964 -114.057561 299 1979ft 0kts
02-Jan-19 17:28 36.832797 -114.057871 30 1979ft 3kts
02-Jan-19 17:29 36.833018 -114.057887 299 1979ft 0kts
02-Jan-19 17:30 36.833018 -114.057887 299 1979ft 0kts

Navigation Log

Ident Type
Flight plan parsing failed, navigation log unavailable